sensor_id;sensor_type;location;lat;lon;timestamp;pressure;altitude;pressure_sealevel;temperature;humidity
36932;BME280;22847;42.654;23.370;2023-01-30T00:01:40;94939.19;;;3.06;63.22
36932;BME280;22847;42.654;23.370;2023-01-30T00:04:06;94730.97;;;1.75;63.44
36932;BME280;22847;42.654;23.370;2023-01-30T00:06:32;94929.13;;;3.15;63.05
36932;BME280;22847;42.654;23.370;2023-01-30T00:08:57;94943.97;;;2.98;62.87
36932;BME280;22847;42.654;23.370;2023-01-30T00:11:23;94932.94;;;3.24;62.50
36932;BME280;22847;42.654;23.370;2023-01-30T00:13:49;94924.53;;;3.21;62.50
36932;BME280;22847;42.654;23.370;2023-01-30T00:16:16;94918.50;;;2.93;62.87
36932;BME280;22847;42.654;23.370;2023-01-30T00:18:42;94931.16;;;3.25;62.49
36932;BME280;22847;42.654;23.370;2023-01-30T00:21:10;94960.38;;;3.38;61.96
36932;BME280;22847;42.654;23.370;2023-01-30T00:23:36;94928.41;;;3.28;62.26
36932;BME280;22847;42.654;23.370;2023-01-30T00:26:03;94926.41;;;3.04;63.21
36932;BME280;22847;42.654;23.370;2023-01-30T00:28:29;94669.25;;;1.47;63.28
36932;BME280;22847;42.654;23.370;2023-01-30T00:30:55;94961.81;;;3.15;63.15
36932;BME280;22847;42.654;23.370;2023-01-30T00:33:22;94634.94;;;1.48;62.25
36932;BME280;22847;42.654;23.370;2023-01-30T00:35:49;94913.88;;;3.12;64.49
36932;BME280;22847;42.654;23.370;2023-01-30T00:38:15;94904.59;;;3.10;63.01
36932;BME280;22847;42.654;23.370;2023-01-30T00:40:41;94619.00;;;0.99;63.89
36932;BME280;22847;42.654;23.370;2023-01-30T00:43:10;94582.00;;;0.73;66.04
36932;BME280;22847;42.654;23.370;2023-01-30T00:45:55;94790.56;;;2.10;64.84
36932;BME280;22847;42.654;23.370;2023-01-30T00:48:39;94909.50;;;2.72;65.03
36932;BME280;22847;42.654;23.370;2023-01-30T00:51:04;94913.34;;;2.65;65.19
36932;BME280;22847;42.654;23.370;2023-01-30T00:53:30;94906.56;;;2.78;65.37
36932;BME280;22847;42.654;23.370;2023-01-30T00:55:55;94903.44;;;2.73;64.85
36932;BME280;22847;42.654;23.370;2023-01-30T00:58:22;94903.50;;;2.72;65.04
36932;BME280;22847;42.654;23.370;2023-01-30T01:00:48;94878.94;;;2.66;64.81
36932;BME280;22847;42.654;23.370;2023-01-30T01:03:14;94913.16;;;2.96;65.23
36932;BME280;22847;42.654;23.370;2023-01-30T01:05:40;94899.81;;;3.04;64.75
36932;BME280;22847;42.654;23.370;2023-01-30T01:08:06;94867.47;;;2.57;64.34
36932;BME280;22847;42.654;23.370;2023-01-30T01:10:32;94797.91;;;2.45;64.27
36932;BME280;22847;42.654;23.370;2023-01-30T01:12:57;94896.88;;;3.10;65.33
36932;BME280;22847;42.654;23.370;2023-01-30T01:15:23;94905.03;;;3.17;65.05
36932;BME280;22847;42.654;23.370;2023-01-30T01:17:50;94879.00;;;3.07;63.37
36932;BME280;22847;42.654;23.370;2023-01-30T01:20:17;94947.72;;;3.21;63.64
36932;BME280;22847;42.654;23.370;2023-01-30T01:22:43;94928.56;;;3.25;63.99
36932;BME280;22847;42.654;23.370;2023-01-30T01:25:09;94895.44;;;3.33;64.00
36932;BME280;22847;42.654;23.370;2023-01-30T01:27:35;94607.31;;;1.38;63.54
36932;BME280;22847;42.654;23.370;2023-01-30T01:30:01;94658.31;;;1.72;63.68
36932;BME280;22847;42.654;23.370;2023-01-30T01:32:26;94884.00;;;3.10;63.59
36932;BME280;22847;42.654;23.370;2023-01-30T01:34:52;94885.88;;;3.21;63.92
36932;BME280;22847;42.654;23.370;2023-01-30T01:37:17;94933.78;;;3.10;63.24
36932;BME280;22847;42.654;23.370;2023-01-30T01:39:43;94884.13;;;3.35;64.57
36932;BME280;22847;42.654;23.370;2023-01-30T01:42:31;94924.19;;;3.12;63.49
36932;BME280;22847;42.654;23.370;2023-01-30T01:50:21;94891.50;;;3.27;63.04
36932;BME280;22847;42.654;23.370;2023-01-30T01:52:52;94852.59;;;3.18;62.54
36932;BME280;22847;42.654;23.370;2023-01-30T01:55:22;94839.97;;;2.86;63.19
36932;BME280;22847;42.654;23.370;2023-01-30T01:57:56;94431.34;;;0.33;63.17
36932;BME280;22847;42.654;23.370;2023-01-30T02:00:23;94872.25;;;2.92;63.79
36932;BME280;22847;42.654;23.370;2023-01-30T02:02:57;94942.41;;;2.95;63.46
36932;BME280;22847;42.654;23.370;2023-01-30T02:05:25;94893.47;;;3.09;63.13
36932;BME280;22847;42.654;23.370;2023-01-30T02:08:05;94890.53;;;3.01;64.05
36932;BME280;22847;42.654;23.370;2023-01-30T02:10:42;94886.47;;;3.11;63.37
36932;BME280;22847;42.654;23.370;2023-01-30T02:13:10;94864.66;;;3.03;63.38
36932;BME280;22847;42.654;23.370;2023-01-30T02:15:35;94893.63;;;3.06;63.80
36932;BME280;22847;42.654;23.370;2023-01-30T02:18:01;94873.53;;;2.70;64.03
36932;BME280;22847;42.654;23.370;2023-01-30T02:20:46;94891.28;;;2.89;63.89
36932;BME280;22847;42.654;23.370;2023-01-30T02:29:11;94835.59;;;2.74;62.79
36932;BME280;22847;42.654;23.370;2023-01-30T02:31:56;94887.41;;;2.96;63.49
36932;BME280;22847;42.654;23.370;2023-01-30T02:37:01;94889.22;;;3.08;63.00
36932;BME280;22847;42.654;23.370;2023-01-30T02:39:32;94649.91;;;1.56;62.63
36932;BME280;22847;42.654;23.370;2023-01-30T02:42:28;94867.38;;;2.87;62.97
36932;BME280;22847;42.654;23.370;2023-01-30T02:47:56;94895.16;;;2.96;62.46
36932;BME280;22847;42.654;23.370;2023-01-30T02:50:44;94870.56;;;3.05;62.33
36932;BME280;22847;42.654;23.370;2023-01-30T02:53:12;94851.72;;;2.90;61.94
36932;BME280;22847;42.654;23.370;2023-01-30T02:55:40;94871.03;;;2.97;63.31
36932;BME280;22847;42.654;23.370;2023-01-30T02:58:06;94614.84;;;1.41;62.04
36932;BME280;22847;42.654;23.370;2023-01-30T03:01:07;94881.69;;;3.20;61.80
36932;BME280;22847;42.654;23.370;2023-01-30T03:08:38;94885.50;;;3.27;61.83
36932;BME280;22847;42.654;23.370;2023-01-30T03:11:07;94871.69;;;3.42;61.22
36932;BME280;22847;42.654;23.370;2023-01-30T03:16:04;94852.88;;;3.13;61.61
36932;BME280;22847;42.654;23.370;2023-01-30T03:18:32;94860.56;;;3.00;61.58
36932;BME280;22847;42.654;23.370;2023-01-30T03:21:05;94810.72;;;2.87;61.39
36932;BME280;22847;42.654;23.370;2023-01-30T03:23:31;94863.72;;;3.18;61.50
36932;BME280;22847;42.654;23.370;2023-01-30T03:25:57;94791.03;;;2.86;61.02
36932;BME280;22847;42.654;23.370;2023-01-30T03:28:23;94844.91;;;3.03;61.37
36932;BME280;22847;42.654;23.370;2023-01-30T03:30:48;94803.91;;;2.86;61.58
36932;BME280;22847;42.654;23.370;2023-01-30T03:33:14;94878.94;;;2.94;61.13
36932;BME280;22847;42.654;23.370;2023-01-30T03:35:39;94884.19;;;2.93;61.27
36932;BME280;22847;42.654;23.370;2023-01-30T03:38:06;94823.41;;;2.76;61.73
36932;BME280;22847;42.654;23.370;2023-01-30T03:40:32;94920.06;;;2.82;62.06
36932;BME280;22847;42.654;23.370;2023-01-30T03:42:57;94800.38;;;2.75;62.26
36932;BME280;22847;42.654;23.370;2023-01-30T03:45:23;94817.91;;;2.82;61.58
36932;BME280;22847;42.654;23.370;2023-01-30T03:47:49;94564.75;;;1.05;62.04
36932;BME280;22847;42.654;23.370;2023-01-30T03:50:15;94840.53;;;2.77;62.05
36932;BME280;22847;42.654;23.370;2023-01-30T03:52:40;94842.88;;;2.94;61.68
36932;BME280;22847;42.654;23.370;2023-01-30T03:55:06;94836.63;;;2.98;62.68
36932;BME280;22847;42.654;23.370;2023-01-30T03:57:31;94835.72;;;2.85;62.33
36932;BME280;22847;42.654;23.370;2023-01-30T03:59:57;94805.97;;;2.53;62.43
36932;BME280;22847;42.654;23.370;2023-01-30T04:02:22;94564.56;;;1.22;62.38
36932;BME280;22847;42.654;23.370;2023-01-30T04:04:49;94836.28;;;2.90;61.89
36932;BME280;22847;42.654;23.370;2023-01-30T04:07:14;94583.56;;;1.48;61.76
36932;BME280;22847;42.654;23.370;2023-01-30T04:09:40;94832.03;;;3.03;61.64
36932;BME280;22847;42.654;23.370;2023-01-30T04:12:05;94572.47;;;1.33;62.26
36932;BME280;22847;42.654;23.370;2023-01-30T04:14:31;94875.09;;;3.01;62.25
36932;BME280;22847;42.654;23.370;2023-01-30T04:16:56;94833.97;;;3.00;62.31
36932;BME280;22847;42.654;23.370;2023-01-30T04:19:22;94563.28;;;1.29;62.57
36932;BME280;22847;42.654;23.370;2023-01-30T04:21:47;94821.59;;;2.78;62.82
36932;BME280;22847;42.654;23.370;2023-01-30T04:24:12;94841.38;;;2.49;63.33
36932;BME280;22847;42.654;23.370;2023-01-30T04:26:38;94789.00;;;2.36;63.62
36932;BME280;22847;42.654;23.370;2023-01-30T04:29:03;94763.81;;;2.13;63.20
36932;BME280;22847;42.654;23.370;2023-01-30T04:31:28;94814.63;;;2.52;63.35
36932;BME280;22847;42.654;23.370;2023-01-30T04:33:54;94570.97;;;1.01;63.61
36932;BME280;22847;42.654;23.370;2023-01-30T04:36:19;94833.56;;;2.79;63.49
36932;BME280;22847;42.654;23.370;2023-01-30T04:38:45;94783.50;;;2.28;63.56
36932;BME280;22847;42.654;23.370;2023-01-30T04:41:10;94568.03;;;0.93;63.70
36932;BME280;22847;42.654;23.370;2023-01-30T04:43:35;94543.91;;;0.96;65.56
36932;BME280;22847;42.654;23.370;2023-01-30T04:46:01;94667.13;;;1.68;63.36
36932;BME280;22847;42.654;23.370;2023-01-30T04:48:26;94818.59;;;2.29;64.61
36932;BME280;22847;42.654;23.370;2023-01-30T04:50:54;94804.63;;;2.19;64.35
36932;BME280;22847;42.654;23.370;2023-01-30T04:53:20;94823.63;;;2.45;64.42
36932;BME280;22847;42.654;23.370;2023-01-30T04:55:46;94656.13;;;1.52;64.42
36932;BME280;22847;42.654;23.370;2023-01-30T04:58:12;94628.97;;;1.48;64.21
36932;BME280;22847;42.654;23.370;2023-01-30T05:00:37;94805.41;;;2.62;65.00
36932;BME280;22847;42.654;23.370;2023-01-30T05:03:03;94782.03;;;2.38;64.70
36932;BME280;22847;42.654;23.370;2023-01-30T05:05:29;94852.75;;;2.45;64.85
36932;BME280;22847;42.654;23.370;2023-01-30T05:07:54;94749.41;;;1.96;65.30
36932;BME280;22847;42.654;23.370;2023-01-30T05:10:20;94787.59;;;2.16;67.02
36932;BME280;22847;42.654;23.370;2023-01-30T05:12:46;94771.09;;;2.20;65.41
36932;BME280;22847;42.654;23.370;2023-01-30T05:15:12;94805.34;;;2.35;65.18
36932;BME280;22847;42.654;23.370;2023-01-30T05:17:38;94547.94;;;0.71;65.81
36932;BME280;22847;42.654;23.370;2023-01-30T05:20:05;94823.44;;;2.48;65.17
36932;BME280;22847;42.654;23.370;2023-01-30T05:22:31;94787.63;;;2.31;65.36
36932;BME280;22847;42.654;23.370;2023-01-30T05:24:56;94797.81;;;2.32;65.04
36932;BME280;22847;42.654;23.370;2023-01-30T05:27:21;94864.81;;;2.59;65.21
36932;BME280;22847;42.654;23.370;2023-01-30T05:29:47;94550.53;;;1.00;64.65
36932;BME280;22847;42.654;23.370;2023-01-30T05:32:17;94778.63;;;2.38;64.76
36932;BME280;22847;42.654;23.370;2023-01-30T05:34:42;94663.66;;;1.69;64.83
36932;BME280;22847;42.654;23.370;2023-01-30T05:37:08;94771.41;;;2.57;64.37
36932;BME280;22847;42.654;23.370;2023-01-30T05:39:34;94813.31;;;2.73;64.57
36932;BME280;22847;42.654;23.370;2023-01-30T05:42:00;94649.06;;;1.69;65.08
36932;BME280;22847;42.654;23.370;2023-01-30T05:44:25;94816.44;;;2.78;64.79
36932;BME280;22847;42.654;23.370;2023-01-30T05:46:50;94835.84;;;2.69;65.17
36932;BME280;22847;42.654;23.370;2023-01-30T05:49:16;94823.63;;;2.73;65.05
36932;BME280;22847;42.654;23.370;2023-01-30T05:51:41;94764.09;;;2.51;64.75
36932;BME280;22847;42.654;23.370;2023-01-30T05:54:07;94817.72;;;2.85;65.00
36932;BME280;22847;42.654;23.370;2023-01-30T05:56:32;94865.63;;;2.88;65.49
36932;BME280;22847;42.654;23.370;2023-01-30T05:58:59;94736.91;;;2.18;65.31
36932;BME280;22847;42.654;23.370;2023-01-30T06:01:25;94833.00;;;2.74;65.45
36932;BME280;22847;42.654;23.370;2023-01-30T06:03:51;94835.09;;;2.82;65.17
36932;BME280;22847;42.654;23.370;2023-01-30T06:06:17;94745.91;;;2.25;65.05
36932;BME280;22847;42.654;23.370;2023-01-30T06:08:43;94573.91;;;1.23;65.09
36932;BME280;22847;42.654;23.370;2023-01-30T06:11:15;94849.06;;;2.92;64.61
36932;BME280;22847;42.654;23.370;2023-01-30T06:13:41;94620.44;;;1.61;65.64
36932;BME280;22847;42.654;23.370;2023-01-30T06:16:09;94825.47;;;2.57;65.09
36932;BME280;22847;42.654;23.370;2023-01-30T06:18:36;94825.91;;;2.78;65.45
36932;BME280;22847;42.654;23.370;2023-01-30T06:21:01;94799.84;;;2.55;64.46
36932;BME280;22847;42.654;23.370;2023-01-30T06:23:27;94609.06;;;1.79;64.28
36932;BME280;22847;42.654;23.370;2023-01-30T06:25:53;94573.28;;;1.48;65.65
36932;BME280;22847;42.654;23.370;2023-01-30T06:28:21;94846.31;;;2.66;65.66
36932;BME280;22847;42.654;23.370;2023-01-30T06:30:47;94811.47;;;2.75;65.54
36932;BME280;22847;42.654;23.370;2023-01-30T06:33:12;94860.84;;;2.67;65.56
36932;BME280;22847;42.654;23.370;2023-01-30T06:35:42;94772.38;;;2.28;66.16
36932;BME280;22847;42.654;23.370;2023-01-30T06:38:08;94815.06;;;2.58;66.08
36932;BME280;22847;42.654;23.370;2023-01-30T06:40:36;94565.38;;;1.09;66.17
36932;BME280;22847;42.654;23.370;2023-01-30T06:43:01;94608.50;;;1.32;67.85
36932;BME280;22847;42.654;23.370;2023-01-30T06:45:27;94765.91;;;2.35;65.79
36932;BME280;22847;42.654;23.370;2023-01-30T06:47:53;94814.53;;;2.67;65.88
36932;BME280;22847;42.654;23.370;2023-01-30T06:50:22;94822.88;;;2.57;67.17
36932;BME280;22847;42.654;23.370;2023-01-30T06:52:49;94734.69;;;2.12;66.08
36932;BME280;22847;42.654;23.370;2023-01-30T06:55:17;94634.19;;;1.46;66.02
36932;BME280;22847;42.654;23.370;2023-01-30T06:57:43;94825.91;;;2.78;66.96
36932;BME280;22847;42.654;23.370;2023-01-30T07:00:15;94851.84;;;2.75;65.61
36932;BME280;22847;42.654;23.370;2023-01-30T07:02:41;94808.75;;;2.36;66.17
36932;BME280;22847;42.654;23.370;2023-01-30T07:05:08;94884.00;;;2.53;66.25
36932;BME280;22847;42.654;23.370;2023-01-30T07:07:34;94621.91;;;1.37;66.43
36932;BME280;22847;42.654;23.370;2023-01-30T07:10:00;94839.25;;;2.70;66.28
36932;BME280;22847;42.654;23.370;2023-01-30T07:12:26;94598.34;;;1.30;65.15
36932;BME280;22847;42.654;23.370;2023-01-30T07:14:52;94846.38;;;2.93;65.85
36932;BME280;22847;42.654;23.370;2023-01-30T07:17:21;94845.13;;;2.86;65.54
36932;BME280;22847;42.654;23.370;2023-01-30T07:19:47;94855.34;;;2.88;64.83
36932;BME280;22847;42.654;23.370;2023-01-30T07:22:13;94889.63;;;2.74;65.63
36932;BME280;22847;42.654;23.370;2023-01-30T07:24:39;94843.66;;;2.68;66.00
36932;BME280;22847;42.654;23.370;2023-01-30T07:27:07;94609.31;;;1.32;65.42
36932;BME280;22847;42.654;23.370;2023-01-30T07:29:34;94886.75;;;2.93;65.22
36932;BME280;22847;42.654;23.370;2023-01-30T07:31:59;94830.72;;;2.55;65.45
36932;BME280;22847;42.654;23.370;2023-01-30T07:34:25;94855.97;;;2.77;65.41
36932;BME280;22847;42.654;23.370;2023-01-30T07:36:50;94846.88;;;2.72;65.24
36932;BME280;22847;42.654;23.370;2023-01-30T07:39:15;94853.75;;;2.57;65.95
36932;BME280;22847;42.654;23.370;2023-01-30T07:41:41;94862.41;;;2.84;70.13
36932;BME280;22847;42.654;23.370;2023-01-30T07:44:06;94860.22;;;2.78;65.04
36932;BME280;22847;42.654;23.370;2023-01-30T07:46:32;94570.06;;;1.02;65.21
36932;BME280;22847;42.654;23.370;2023-01-30T07:49:00;94901.75;;;2.86;64.71
36932;BME280;22847;42.654;23.370;2023-01-30T07:51:26;94861.75;;;2.81;64.73
36932;BME280;22847;42.654;23.370;2023-01-30T07:53:51;94838.31;;;2.57;64.82
36932;BME280;22847;42.654;23.370;2023-01-30T07:56:17;94858.41;;;2.93;64.79
36932;BME280;22847;42.654;23.370;2023-01-30T07:58:44;94817.72;;;2.57;65.25
36932;BME280;22847;42.654;23.370;2023-01-30T08:01:10;94591.47;;;0.87;66.90
36932;BME280;22847;42.654;23.370;2023-01-30T08:03:35;94820.41;;;2.13;67.30
36932;BME280;22847;42.654;23.370;2023-01-30T08:06:01;94571.84;;;0.86;66.41
36932;BME280;22847;42.654;23.370;2023-01-30T08:08:26;94578.84;;;0.84;65.84
36932;BME280;22847;42.654;23.370;2023-01-30T08:10:51;94822.56;;;1.91;66.06
36932;BME280;22847;42.654;23.370;2023-01-30T08:13:17;94848.75;;;1.83;66.80
36932;BME280;22847;42.654;23.370;2023-01-30T08:15:42;94797.81;;;2.18;65.89
36932;BME280;22847;42.654;23.370;2023-01-30T08:18:08;94810.22;;;2.11;66.06
36932;BME280;22847;42.654;23.370;2023-01-30T08:20:33;94586.47;;;1.00;65.22
36932;BME280;22847;42.654;23.370;2023-01-30T08:22:59;94565.56;;;1.06;64.35
36932;BME280;22847;42.654;23.370;2023-01-30T08:25:26;94754.38;;;2.13;64.78
36932;BME280;22847;42.654;23.370;2023-01-30T08:27:52;94819.72;;;2.80;64.76
36932;BME280;22847;42.654;23.370;2023-01-30T08:30:19;94809.91;;;2.87;63.85
36932;BME280;22847;42.654;23.370;2023-01-30T08:32:45;94785.78;;;2.47;63.87
36932;BME280;22847;42.654;23.370;2023-01-30T08:35:10;94553.84;;;1.02;63.75
36932;BME280;22847;42.654;23.370;2023-01-30T08:37:38;94503.13;;;1.05;63.17
36932;BME280;22847;42.654;23.370;2023-01-30T08:40:04;94809.13;;;2.99;65.07
36932;BME280;22847;42.654;23.370;2023-01-30T08:42:29;94802.97;;;3.01;63.09
36932;BME280;22847;42.654;23.370;2023-01-30T08:44:55;94779.25;;;2.96;62.30
36932;BME280;22847;42.654;23.370;2023-01-30T08:47:20;94806.06;;;3.06;62.13
36932;BME280;22847;42.654;23.370;2023-01-30T08:49:46;94622.31;;;2.00;62.16
36932;BME280;22847;42.654;23.370;2023-01-30T08:52:11;94725.78;;;2.73;62.20
36932;BME280;22847;42.654;23.370;2023-01-30T08:54:36;94751.75;;;2.56;62.81
36932;BME280;22847;42.654;23.370;2023-01-30T08:57:02;94695.53;;;2.36;62.19
36932;BME280;22847;42.654;23.370;2023-01-30T08:59:27;94758.41;;;2.87;62.13
36932;BME280;22847;42.654;23.370;2023-01-30T09:01:53;94735.84;;;2.90;61.46
36932;BME280;22847;42.654;23.370;2023-01-30T09:04:18;94621.81;;;2.22;62.89
36932;BME280;22847;42.654;23.370;2023-01-30T09:06:43;94771.66;;;3.47;64.22
36932;BME280;22847;42.654;23.370;2023-01-30T09:09:09;94810.56;;;3.56;59.99
36932;BME280;22847;42.654;23.370;2023-01-30T09:11:34;94762.72;;;3.52;59.54
36932;BME280;22847;42.654;23.370;2023-01-30T09:14:00;94796.47;;;3.62;58.93
36932;BME280;22847;42.654;23.370;2023-01-30T09:16:25;94570.38;;;2.22;58.71
36932;BME280;22847;42.654;23.370;2023-01-30T09:18:51;94798.69;;;3.41;58.80
36932;BME280;22847;42.654;23.370;2023-01-30T09:21:16;94761.72;;;3.55;58.87
36932;BME280;22847;42.654;23.370;2023-01-30T09:23:42;94757.16;;;3.58;57.89
36932;BME280;22847;42.654;23.370;2023-01-30T09:26:07;94476.25;;;1.93;59.98
36932;BME280;22847;42.654;23.370;2023-01-30T09:28:33;94805.34;;;3.71;62.04
36932;BME280;22847;42.654;23.370;2023-01-30T09:31:02;94673.72;;;3.34;60.91
36932;BME280;22847;42.654;23.370;2023-01-30T09:33:27;94754.13;;;4.04;63.06
36932;BME280;22847;42.654;23.370;2023-01-30T09:35:53;94528.34;;;2.48;62.93
36932;BME280;22847;42.654;23.370;2023-01-30T09:38:18;94749.28;;;3.87;61.57
36932;BME280;22847;42.654;23.370;2023-01-30T09:43:37;94760.81;;;4.19;62.45
36932;BME280;22847;42.654;23.370;2023-01-30T09:46:15;94754.94;;;4.17;59.68
36932;BME280;22847;42.654;23.370;2023-01-30T09:49:16;94749.16;;;4.26;58.42
36932;BME280;22847;42.654;23.370;2023-01-30T09:54:29;94733.66;;;4.01;59.19
36932;BME280;22847;42.654;23.370;2023-01-30T09:57:18;94743.47;;;3.83;59.43
36932;BME280;22847;42.654;23.370;2023-01-30T10:02:26;94672.13;;;3.06;61.45
36932;BME280;22847;42.654;23.370;2023-01-30T10:04:52;94725.16;;;3.36;60.95
36932;BME280;22847;42.654;23.370;2023-01-30T10:10:09;94723.66;;;3.46;61.39
36932;BME280;22847;42.654;23.370;2023-01-30T10:15:18;94719.94;;;3.37;61.91
36932;BME280;22847;42.654;23.370;2023-01-30T10:17:51;94705.50;;;3.47;61.27
36932;BME280;22847;42.654;23.370;2023-01-30T10:23:28;94723.66;;;3.58;60.24
36932;BME280;22847;42.654;23.370;2023-01-30T10:26:03;94627.94;;;3.12;60.70
36932;BME280;22847;42.654;23.370;2023-01-30T10:28:38;94679.53;;;3.63;61.10
36932;BME280;22847;42.654;23.370;2023-01-30T10:31:12;94630.44;;;3.39;61.40
36932;BME280;22847;42.654;23.370;2023-01-30T10:33:50;94675.59;;;3.20;60.02
36932;BME280;22847;42.654;23.370;2023-01-30T10:36:26;94611.97;;;3.20;61.31
36932;BME280;22847;42.654;23.370;2023-01-30T10:38:56;94712.59;;;3.44;61.21
36932;BME280;22847;42.654;23.370;2023-01-30T10:41:27;94373.38;;;1.41;61.48
36932;BME280;22847;42.654;23.370;2023-01-30T10:52:17;94547.59;;;2.43;60.53
36932;BME280;22847;42.654;23.370;2023-01-30T11:03:44;94601.00;;;4.29;58.50
36932;BME280;22847;42.654;23.370;2023-01-30T11:06:14;94611.59;;;4.37;57.00
36932;BME280;22847;42.654;23.370;2023-01-30T11:08:41;94542.72;;;3.90;57.29
36932;BME280;22847;42.654;23.370;2023-01-30T11:14:03;94586.25;;;4.31;56.64
36932;BME280;22847;42.654;23.370;2023-01-30T11:16:30;94620.84;;;4.16;56.19
36932;BME280;22847;42.654;23.370;2023-01-30T11:18:55;94606.94;;;4.05;57.82
36932;BME280;22847;42.654;23.370;2023-01-30T11:21:32;94618.22;;;4.04;57.82
36932;BME280;22847;42.654;23.370;2023-01-30T11:24:11;94531.84;;;3.74;58.03
36932;BME280;22847;42.654;23.370;2023-01-30T11:26:37;94598.72;;;4.00;57.73
36932;BME280;22847;42.654;23.370;2023-01-30T11:31:40;94414.81;;;3.40;57.23
36932;BME280;22847;42.654;23.370;2023-01-30T11:34:14;94512.28;;;3.95;56.58
36932;BME280;22847;42.654;23.370;2023-01-30T11:36:40;94267.47;;;2.51;57.60
36932;BME280;22847;42.654;23.370;2023-01-30T11:41:57;94537.38;;;4.17;56.70
36932;BME280;22847;42.654;23.370;2023-01-30T11:47:27;94522.72;;;4.17;57.42
36932;BME280;22847;42.654;23.370;2023-01-30T11:49:58;94516.00;;;4.15;57.62
36932;BME280;22847;42.654;23.370;2023-01-30T11:52:30;94561.38;;;3.93;57.69
36932;BME280;22847;42.654;23.370;2023-01-30T11:54:59;94437.41;;;3.36;57.70
36932;BME280;22847;42.654;23.370;2023-01-30T11:57:25;94492.06;;;3.89;57.73
36932;BME280;22847;42.654;23.370;2023-01-30T11:59:59;94290.19;;;2.57;57.70
36932;BME280;22847;42.654;23.370;2023-01-30T12:04:54;94482.41;;;3.80;58.29
36932;BME280;22847;42.654;23.370;2023-01-30T12:09:47;94235.84;;;2.49;58.71
36932;BME280;22847;42.654;23.370;2023-01-30T12:12:42;94424.84;;;3.79;57.47
36932;BME280;22847;42.654;23.370;2023-01-30T12:15:16;94471.94;;;4.18;57.80
36932;BME280;22847;42.654;23.370;2023-01-30T12:21:20;94458.78;;;4.10;56.81
36932;BME280;22847;42.654;23.370;2023-01-30T12:31:32;94445.47;;;4.27;56.38
36932;BME280;22847;42.654;23.370;2023-01-30T12:34:01;94183.97;;;2.55;57.42
36932;BME280;22847;42.654;23.370;2023-01-30T12:50:25;94457.06;;;4.21;55.86
36932;BME280;22847;42.654;23.370;2023-01-30T12:58:56;94396.97;;;4.54;54.96
36932;BME280;22847;42.654;23.370;2023-01-30T13:01:32;94407.13;;;4.33;55.06
36932;BME280;22847;42.654;23.370;2023-01-30T13:04:28;94142.84;;;2.66;56.31
36932;BME280;22847;42.654;23.370;2023-01-30T13:07:07;94395.72;;;3.90;58.06
36932;BME280;22847;42.654;23.370;2023-01-30T13:09:47;94438.41;;;4.18;58.23
36932;BME280;22847;42.654;23.370;2023-01-30T13:26:03;94372.06;;;3.96;56.80
36932;BME280;22847;42.654;23.370;2023-01-30T13:28:36;94175.63;;;2.75;56.44
36932;BME280;22847;42.654;23.370;2023-01-30T13:31:10;94359.56;;;3.79;57.16
36932;BME280;22847;42.654;23.370;2023-01-30T13:33:40;94310.03;;;3.97;56.60
36932;BME280;22847;42.654;23.370;2023-01-30T13:36:22;94380.63;;;4.42;55.59
36932;BME280;22847;42.654;23.370;2023-01-30T13:38:59;94129.50;;;2.96;55.60
36932;BME280;22847;42.654;23.370;2023-01-30T13:41:32;94341.75;;;4.33;55.67
36932;BME280;22847;42.654;23.370;2023-01-30T13:44:02;94365.88;;;4.67;56.68
36932;BME280;22847;42.654;23.370;2023-01-30T13:46:31;94335.44;;;4.26;55.04
36932;BME280;22847;42.654;23.370;2023-01-30T13:49:24;94367.31;;;4.14;56.02
36932;BME280;22847;42.654;23.370;2023-01-30T13:52:42;94108.53;;;2.54;56.35
36932;BME280;22847;42.654;23.370;2023-01-30T13:57:39;94369.47;;;4.31;55.63
36932;BME280;22847;42.654;23.370;2023-01-30T14:08:22;94367.38;;;4.01;57.26
36932;BME280;22847;42.654;23.370;2023-01-30T14:10:50;94250.88;;;3.15;56.43
36932;BME280;22847;42.654;23.370;2023-01-30T14:13:16;94393.72;;;3.82;56.23
36932;BME280;22847;42.654;23.370;2023-01-30T14:16:02;94361.88;;;3.94;56.44
36932;BME280;22847;42.654;23.370;2023-01-30T14:21:19;94366.78;;;3.97;55.86
36932;BME280;22847;42.654;23.370;2023-01-30T14:24:04;94370.81;;;4.13;55.47
36932;BME280;22847;42.654;23.370;2023-01-30T14:34:45;94367.84;;;3.95;56.10
36932;BME280;22847;42.654;23.370;2023-01-30T14:39:53;94358.34;;;3.95;55.67
36932;BME280;22847;42.654;23.370;2023-01-30T14:42:26;94129.34;;;2.51;55.39
36932;BME280;22847;42.654;23.370;2023-01-30T14:47:22;94103.34;;;2.19;56.50
36932;BME280;22847;42.654;23.370;2023-01-30T14:49:48;94310.31;;;3.36;56.31
36932;BME280;22847;42.654;23.370;2023-01-30T14:52:40;94346.88;;;3.65;56.13
36932;BME280;22847;42.654;23.370;2023-01-30T14:55:16;94129.72;;;2.34;56.26
36932;BME280;22847;42.654;23.370;2023-01-30T14:57:54;94176.69;;;2.49;56.39
36932;BME280;22847;42.654;23.370;2023-01-30T15:00:25;94125.50;;;2.33;56.30
36932;BME280;22847;42.654;23.370;2023-01-30T15:02:55;94338.84;;;3.56;56.32
36932;BME280;22847;42.654;23.370;2023-01-30T15:05:30;94311.25;;;3.35;56.74
36932;BME280;22847;42.654;23.370;2023-01-30T15:08:07;94339.09;;;3.53;56.98
36932;BME280;22847;42.654;23.370;2023-01-30T15:15:45;94346.91;;;3.04;58.31
36932;BME280;22847;42.654;23.370;2023-01-30T15:21:30;94345.28;;;3.27;57.59
36932;BME280;22847;42.654;23.370;2023-01-30T15:27:17;94224.66;;;2.50;57.45
36932;BME280;22847;42.654;23.370;2023-01-30T15:30:31;94341.16;;;3.01;57.91
36932;BME280;22847;42.654;23.370;2023-01-30T15:32:31;94085.94;;;1.50;57.89
36932;BME280;22847;42.654;23.370;2023-01-30T15:35:18;94366.44;;;2.58;58.78
36932;BME280;22847;42.654;23.370;2023-01-30T15:42:45;94394.69;;;2.34;59.68
36932;BME280;22847;42.654;23.370;2023-01-30T15:45:27;94402.66;;;2.04;61.76
36932;BME280;22847;42.654;23.370;2023-01-30T15:50:53;94362.94;;;2.72;59.26
36932;BME280;22847;42.654;23.370;2023-01-30T15:53:29;94356.94;;;2.84;58.88
36932;BME280;22847;42.654;23.370;2023-01-30T15:55:57;94366.84;;;2.77;59.16